sensor_id;sensor_type;location;lat;lon;timestamp;P1;durP1;ratioP1;P2;durP2;ratioP2
15198;SDS011;7700;48.654;9.070;2022-07-17T00:01:21;4.28;;;3.38;;
15198;SDS011;7700;48.654;9.070;2022-07-17T00:03:46;4.97;;;3.40;;
15198;SDS011;7700;48.654;9.070;2022-07-17T00:06:12;3.67;;;3.25;;
15198;SDS011;7700;48.654;9.070;2022-07-17T00:08:38;5.45;;;3.38;;
15198;SDS011;7700;48.654;9.070;2022-07-17T00:11:03;5.13;;;3.60;;
15198;SDS011;7700;48.654;9.070;2022-07-17T00:13:29;4.72;;;4.32;;
15198;SDS011;7700;48.654;9.070;2022-07-17T00:15:55;8.68;;;5.10;;
15198;SDS011;7700;48.654;9.070;2022-07-17T00:18:21;6.50;;;4.80;;
15198;SDS011;7700;48.654;9.070;2022-07-17T00:20:46;7.30;;;4.28;;
15198;SDS011;7700;48.654;9.070;2022-07-17T00:23:12;6.20;;;4.57;;
15198;SDS011;7700;48.654;9.070;2022-07-17T00:25:37;4.78;;;4.03;;
15198;SDS011;7700;48.654;9.070;2022-07-17T00:28:04;4.43;;;3.25;;
15198;SDS011;7700;48.654;9.070;2022-07-17T00:30:29;5.00;;;3.45;;
15198;SDS011;7700;48.654;9.070;2022-07-17T00:32:55;4.20;;;3.40;;
15198;SDS011;7700;48.654;9.070;2022-07-17T00:35:21;4.60;;;3.60;;
15198;SDS011;7700;48.654;9.070;2022-07-17T00:37:48;4.82;;;4.15;;
15198;SDS011;7700;48.654;9.070;2022-07-17T00:40:16;5.78;;;4.00;;
15198;SDS011;7700;48.654;9.070;2022-07-17T00:42:44;4.70;;;3.83;;
15198;SDS011;7700;48.654;9.070;2022-07-17T00:45:10;5.70;;;4.00;;
15198;SDS011;7700;48.654;9.070;2022-07-17T00:47:54;4.78;;;3.72;;
15198;SDS011;7700;48.654;9.070;2022-07-17T00:50:26;4.93;;;4.25;;
15198;SDS011;7700;48.654;9.070;2022-07-17T00:52:54;4.13;;;3.65;;
15198;SDS011;7700;48.654;9.070;2022-07-17T00:55:20;5.47;;;3.83;;
15198;SDS011;7700;48.654;9.070;2022-07-17T00:57:48;5.07;;;4.57;;
15198;SDS011;7700;48.654;9.070;2022-07-17T01:00:17;4.57;;;4.10;;
15198;SDS011;7700;48.654;9.070;2022-07-17T01:02:47;4.25;;;3.85;;
15198;SDS011;7700;48.654;9.070;2022-07-17T01:05:15;4.82;;;3.90;;
15198;SDS011;7700;48.654;9.070;2022-07-17T01:07:41;10.52;;;4.20;;
15198;SDS011;7700;48.654;9.070;2022-07-17T01:10:06;4.57;;;4.10;;
15198;SDS011;7700;48.654;9.070;2022-07-17T01:12:33;5.13;;;4.07;;
15198;SDS011;7700;48.654;9.070;2022-07-17T01:14:59;4.47;;;4.00;;
15198;SDS011;7700;48.654;9.070;2022-07-17T01:17:24;6.03;;;3.85;;
15198;SDS011;7700;48.654;9.070;2022-07-17T01:19:51;5.97;;;3.78;;
15198;SDS011;7700;48.654;9.070;2022-07-17T01:22:16;3.88;;;3.47;;
15198;SDS011;7700;48.654;9.070;2022-07-17T01:24:42;4.05;;;3.60;;
15198;SDS011;7700;48.654;9.070;2022-07-17T01:27:07;4.70;;;3.97;;
15198;SDS011;7700;48.654;9.070;2022-07-17T01:29:35;4.28;;;3.72;;
15198;SDS011;7700;48.654;9.070;2022-07-17T01:32:02;7.03;;;4.10;;
15198;SDS011;7700;48.654;9.070;2022-07-17T01:34:27;4.80;;;4.30;;
15198;SDS011;7700;48.654;9.070;2022-07-17T01:36:53;7.05;;;4.47;;
15198;SDS011;7700;48.654;9.070;2022-07-17T01:39:19;5.53;;;4.05;;
15198;SDS011;7700;48.654;9.070;2022-07-17T01:42:04;6.05;;;4.07;;
15198;SDS011;7700;48.654;9.070;2022-07-17T01:44:30;4.30;;;3.90;;
15198;SDS011;7700;48.654;9.070;2022-07-17T01:46:56;3.72;;;3.42;;
15198;SDS011;7700;48.654;9.070;2022-07-17T01:49:21;3.92;;;3.53;;
15198;SDS011;7700;48.654;9.070;2022-07-17T01:51:47;3.65;;;3.35;;
15198;SDS011;7700;48.654;9.070;2022-07-17T01:54:13;3.58;;;3.25;;
15198;SDS011;7700;48.654;9.070;2022-07-17T01:56:38;4.53;;;3.45;;
15198;SDS011;7700;48.654;9.070;2022-07-17T01:59:04;4.70;;;3.50;;
15198;SDS011;7700;48.654;9.070;2022-07-17T02:01:29;4.95;;;4.40;;
15198;SDS011;7700;48.654;9.070;2022-07-17T02:03:55;5.47;;;4.10;;
15198;SDS011;7700;48.654;9.070;2022-07-17T02:06:20;5.72;;;3.88;;
15198;SDS011;7700;48.654;9.070;2022-07-17T02:08:46;4.30;;;3.90;;
15198;SDS011;7700;48.654;9.070;2022-07-17T02:11:14;7.55;;;4.32;;
15198;SDS011;7700;48.654;9.070;2022-07-17T02:13:40;5.50;;;4.00;;
15198;SDS011;7700;48.654;9.070;2022-07-17T02:16:06;5.75;;;4.22;;
15198;SDS011;7700;48.654;9.070;2022-07-17T02:18:31;4.65;;;4.25;;
15198;SDS011;7700;48.654;9.070;2022-07-17T02:20:57;5.38;;;4.28;;
15198;SDS011;7700;48.654;9.070;2022-07-17T02:23:22;5.35;;;3.85;;
15198;SDS011;7700;48.654;9.070;2022-07-17T02:25:48;4.63;;;4.25;;
15198;SDS011;7700;48.654;9.070;2022-07-17T02:28:14;4.55;;;3.55;;
15198;SDS011;7700;48.654;9.070;2022-07-17T02:30:39;4.40;;;4.00;;
15198;SDS011;7700;48.654;9.070;2022-07-17T02:33:05;5.35;;;4.72;;
15198;SDS011;7700;48.654;9.070;2022-07-17T02:35:31;5.53;;;4.60;;
15198;SDS011;7700;48.654;9.070;2022-07-17T02:37:57;5.15;;;4.65;;
15198;SDS011;7700;48.654;9.070;2022-07-17T02:40:23;4.53;;;4.13;;
15198;SDS011;7700;48.654;9.070;2022-07-17T02:42:48;6.15;;;4.65;;
15198;SDS011;7700;48.654;9.070;2022-07-17T02:45:14;6.45;;;4.70;;
15198;SDS011;7700;48.654;9.070;2022-07-17T02:47:40;4.68;;;4.20;;
15198;SDS011;7700;48.654;9.070;2022-07-17T02:50:07;5.95;;;4.43;;
15198;SDS011;7700;48.654;9.070;2022-07-17T02:52:34;4.88;;;4.40;;
15198;SDS011;7700;48.654;9.070;2022-07-17T02:55:00;4.72;;;4.22;;
15198;SDS011;7700;48.654;9.070;2022-07-17T02:57:25;4.55;;;3.53;;
15198;SDS011;7700;48.654;9.070;2022-07-17T02:59:51;4.93;;;4.45;;
15198;SDS011;7700;48.654;9.070;2022-07-17T03:02:17;6.20;;;4.90;;
15198;SDS011;7700;48.654;9.070;2022-07-17T03:04:42;4.55;;;4.15;;
15198;SDS011;7700;48.654;9.070;2022-07-17T03:07:08;6.90;;;4.25;;
15198;SDS011;7700;48.654;9.070;2022-07-17T03:09:34;4.95;;;4.55;;
15198;SDS011;7700;48.654;9.070;2022-07-17T03:11:59;4.55;;;3.53;;
15198;SDS011;7700;48.654;9.070;2022-07-17T03:14:25;4.30;;;3.90;;
15198;SDS011;7700;48.654;9.070;2022-07-17T03:16:51;6.18;;;4.60;;
15198;SDS011;7700;48.654;9.070;2022-07-17T03:19:16;5.57;;;4.50;;
15198;SDS011;7700;48.654;9.070;2022-07-17T03:21:42;5.22;;;4.43;;
15198;SDS011;7700;48.654;9.070;2022-07-17T03:24:07;5.32;;;4.80;;
15198;SDS011;7700;48.654;9.070;2022-07-17T03:26:33;4.57;;;4.18;;
15198;SDS011;7700;48.654;9.070;2022-07-17T03:28:58;4.90;;;4.40;;
15198;SDS011;7700;48.654;9.070;2022-07-17T03:31:24;5.68;;;4.50;;
15198;SDS011;7700;48.654;9.070;2022-07-17T03:33:49;5.28;;;4.20;;
15198;SDS011;7700;48.654;9.070;2022-07-17T03:36:15;4.60;;;4.25;;
15198;SDS011;7700;48.654;9.070;2022-07-17T03:38:40;4.72;;;4.30;;
15198;SDS011;7700;48.654;9.070;2022-07-17T03:41:06;4.43;;;4.03;;
15198;SDS011;7700;48.654;9.070;2022-07-17T03:43:31;5.20;;;4.10;;
15198;SDS011;7700;48.654;9.070;2022-07-17T03:45:57;4.53;;;4.07;;
15198;SDS011;7700;48.654;9.070;2022-07-17T03:48:22;4.40;;;4.00;;
15198;SDS011;7700;48.654;9.070;2022-07-17T03:50:48;4.20;;;3.67;;
15198;SDS011;7700;48.654;9.070;2022-07-17T03:53:13;5.13;;;3.92;;
15198;SDS011;7700;48.654;9.070;2022-07-17T03:55:39;4.88;;;4.47;;
15198;SDS011;7700;48.654;9.070;2022-07-17T03:58:05;6.40;;;4.40;;
15198;SDS011;7700;48.654;9.070;2022-07-17T04:00:30;4.95;;;3.72;;
15198;SDS011;7700;48.654;9.070;2022-07-17T04:02:56;4.70;;;4.30;;
15198;SDS011;7700;48.654;9.070;2022-07-17T04:05:21;4.90;;;3.75;;
15198;SDS011;7700;48.654;9.070;2022-07-17T04:07:47;4.68;;;4.10;;
15198;SDS011;7700;48.654;9.070;2022-07-17T04:10:13;4.85;;;3.92;;
15198;SDS011;7700;48.654;9.070;2022-07-17T04:12:40;5.68;;;4.50;;
15198;SDS011;7700;48.654;9.070;2022-07-17T04:15:06;4.70;;;4.20;;
15198;SDS011;7700;48.654;9.070;2022-07-17T04:17:32;4.60;;;4.15;;
15198;SDS011;7700;48.654;9.070;2022-07-17T04:19:58;6.85;;;4.18;;
15198;SDS011;7700;48.654;9.070;2022-07-17T04:22:24;4.22;;;3.80;;
15198;SDS011;7700;48.654;9.070;2022-07-17T04:24:49;4.10;;;3.80;;
15198;SDS011;7700;48.654;9.070;2022-07-17T04:27:15;4.93;;;3.53;;
15198;SDS011;7700;48.654;9.070;2022-07-17T04:29:41;5.00;;;4.53;;
15198;SDS011;7700;48.654;9.070;2022-07-17T04:32:07;6.28;;;3.70;;
15198;SDS011;7700;48.654;9.070;2022-07-17T04:34:32;4.85;;;4.40;;
15198;SDS011;7700;48.654;9.070;2022-07-17T04:36:59;5.82;;;4.40;;
15198;SDS011;7700;48.654;9.070;2022-07-17T04:39:25;7.43;;;3.95;;
15198;SDS011;7700;48.654;9.070;2022-07-17T04:41:50;5.95;;;4.68;;
15198;SDS011;7700;48.654;9.070;2022-07-17T04:44:16;5.88;;;4.63;;
15198;SDS011;7700;48.654;9.070;2022-07-17T04:46:42;5.30;;;4.63;;
15198;SDS011;7700;48.654;9.070;2022-07-17T04:49:08;5.43;;;5.03;;
15198;SDS011;7700;48.654;9.070;2022-07-17T04:51:33;5.18;;;4.78;;
15198;SDS011;7700;48.654;9.070;2022-07-17T04:53:59;5.18;;;4.65;;
15198;SDS011;7700;48.654;9.070;2022-07-17T04:56:24;5.03;;;4.53;;
15198;SDS011;7700;48.654;9.070;2022-07-17T04:58:50;7.43;;;4.80;;
15198;SDS011;7700;48.654;9.070;2022-07-17T05:01:16;5.07;;;4.68;;
15198;SDS011;7700;48.654;9.070;2022-07-17T05:03:41;5.33;;;4.93;;
15198;SDS011;7700;48.654;9.070;2022-07-17T05:06:07;6.45;;;5.28;;
15198;SDS011;7700;48.654;9.070;2022-07-17T05:08:33;4.88;;;4.47;;
15198;SDS011;7700;48.654;9.070;2022-07-17T05:10:59;4.80;;;4.40;;
15198;SDS011;7700;48.654;9.070;2022-07-17T05:13:25;6.32;;;4.90;;
15198;SDS011;7700;48.654;9.070;2022-07-17T05:15:50;4.78;;;4.38;;
15198;SDS011;7700;48.654;9.070;2022-07-17T05:18:16;6.38;;;4.50;;
15198;SDS011;7700;48.654;9.070;2022-07-17T05:20:41;6.25;;;4.65;;
15198;SDS011;7700;48.654;9.070;2022-07-17T05:23:07;5.13;;;4.65;;
15198;SDS011;7700;48.654;9.070;2022-07-17T05:25:33;5.82;;;4.72;;
15198;SDS011;7700;48.654;9.070;2022-07-17T05:27:58;5.65;;;5.05;;
15198;SDS011;7700;48.654;9.070;2022-07-17T05:30:24;5.32;;;4.82;;
15198;SDS011;7700;48.654;9.070;2022-07-17T05:32:50;7.78;;;5.00;;
15198;SDS011;7700;48.654;9.070;2022-07-17T05:35:15;5.38;;;4.88;;
15198;SDS011;7700;48.654;9.070;2022-07-17T05:37:41;6.90;;;5.22;;
15198;SDS011;7700;48.654;9.070;2022-07-17T05:40:06;4.82;;;4.43;;
15198;SDS011;7700;48.654;9.070;2022-07-17T05:42:32;7.78;;;4.70;;
15198;SDS011;7700;48.654;9.070;2022-07-17T05:44:58;5.13;;;4.72;;
15198;SDS011;7700;48.654;9.070;2022-07-17T05:47:24;6.22;;;4.47;;
15198;SDS011;7700;48.654;9.070;2022-07-17T05:49:50;6.60;;;4.97;;
15198;SDS011;7700;48.654;9.070;2022-07-17T05:52:15;5.43;;;4.93;;
15198;SDS011;7700;48.654;9.070;2022-07-17T05:54:41;5.55;;;4.75;;
15198;SDS011;7700;48.654;9.070;2022-07-17T05:57:06;5.43;;;4.85;;
15198;SDS011;7700;48.654;9.070;2022-07-17T05:59:32;5.35;;;4.95;;
15198;SDS011;7700;48.654;9.070;2022-07-17T06:01:57;5.60;;;5.00;;
15198;SDS011;7700;48.654;9.070;2022-07-17T06:04:23;4.75;;;4.25;;
15198;SDS011;7700;48.654;9.070;2022-07-17T06:06:48;4.45;;;4.15;;
15198;SDS011;7700;48.654;9.070;2022-07-17T06:09:14;4.90;;;4.47;;
15198;SDS011;7700;48.654;9.070;2022-07-17T06:11:39;5.50;;;4.03;;
15198;SDS011;7700;48.654;9.070;2022-07-17T06:14:05;4.93;;;4.47;;
15198;SDS011;7700;48.654;9.070;2022-07-17T06:16:30;4.40;;;4.00;;
15198;SDS011;7700;48.654;9.070;2022-07-17T06:18:56;4.72;;;4.10;;
15198;SDS011;7700;48.654;9.070;2022-07-17T06:21:22;5.10;;;4.13;;
15198;SDS011;7700;48.654;9.070;2022-07-17T06:23:47;5.20;;;4.65;;
15198;SDS011;7700;48.654;9.070;2022-07-17T06:26:13;3.60;;;3.17;;
15198;SDS011;7700;48.654;9.070;2022-07-17T06:28:38;5.15;;;3.75;;
15198;SDS011;7700;48.654;9.070;2022-07-17T06:31:04;5.80;;;3.97;;
15198;SDS011;7700;48.654;9.070;2022-07-17T06:33:29;6.07;;;3.90;;
15198;SDS011;7700;48.654;9.070;2022-07-17T06:35:55;4.55;;;3.78;;
15198;SDS011;7700;48.654;9.070;2022-07-17T06:38:20;3.55;;;3.25;;
15198;SDS011;7700;48.654;9.070;2022-07-17T06:40:46;4.13;;;3.58;;
15198;SDS011;7700;48.654;9.070;2022-07-17T06:43:12;3.40;;;3.10;;
15198;SDS011;7700;48.654;9.070;2022-07-17T06:45:37;3.08;;;2.88;;
15198;SDS011;7700;48.654;9.070;2022-07-17T06:48:03;4.88;;;3.30;;
15198;SDS011;7700;48.654;9.070;2022-07-17T06:50:29;3.92;;;3.22;;
15198;SDS011;7700;48.654;9.070;2022-07-17T06:52:55;5.43;;;3.03;;
15198;SDS011;7700;48.654;9.070;2022-07-17T06:55:23;4.10;;;2.78;;
15198;SDS011;7700;48.654;9.070;2022-07-17T06:57:48;3.60;;;3.22;;
15198;SDS011;7700;48.654;9.070;2022-07-17T07:00:15;3.22;;;2.92;;
15198;SDS011;7700;48.654;9.070;2022-07-17T07:02:43;2.72;;;2.53;;
15198;SDS011;7700;48.654;9.070;2022-07-17T07:05:09;4.00;;;2.40;;
15198;SDS011;7700;48.654;9.070;2022-07-17T07:07:35;4.35;;;2.65;;
15198;SDS011;7700;48.654;9.070;2022-07-17T07:10:00;4.57;;;2.90;;
15198;SDS011;7700;48.654;9.070;2022-07-17T07:12:26;2.53;;;2.33;;
15198;SDS011;7700;48.654;9.070;2022-07-17T07:14:52;2.67;;;2.47;;
15198;SDS011;7700;48.654;9.070;2022-07-17T07:17:17;2.70;;;2.50;;
15198;SDS011;7700;48.654;9.070;2022-07-17T07:19:43;4.22;;;2.60;;
15198;SDS011;7700;48.654;9.070;2022-07-17T07:22:08;3.60;;;3.30;;
15198;SDS011;7700;48.654;9.070;2022-07-17T07:24:34;3.67;;;2.88;;
15198;SDS011;7700;48.654;9.070;2022-07-17T07:27:00;2.30;;;2.10;;
15198;SDS011;7700;48.654;9.070;2022-07-17T07:29:25;3.17;;;2.60;;
15198;SDS011;7700;48.654;9.070;2022-07-17T07:31:51;2.63;;;2.10;;
15198;SDS011;7700;48.654;9.070;2022-07-17T07:34:16;2.70;;;2.50;;
15198;SDS011;7700;48.654;9.070;2022-07-17T07:36:42;2.20;;;2.08;;
15198;SDS011;7700;48.654;9.070;2022-07-17T07:39:07;2.38;;;2.17;;
15198;SDS011;7700;48.654;9.070;2022-07-17T07:41:33;5.32;;;2.45;;
15198;SDS011;7700;48.654;9.070;2022-07-17T07:43:58;2.72;;;2.13;;
15198;SDS011;7700;48.654;9.070;2022-07-17T07:46:24;2.20;;;1.98;;
15198;SDS011;7700;48.654;9.070;2022-07-17T07:48:50;2.20;;;2.00;;
15198;SDS011;7700;48.654;9.070;2022-07-17T07:51:16;2.13;;;1.92;;
15198;SDS011;7700;48.654;9.070;2022-07-17T07:53:41;2.83;;;2.22;;
15198;SDS011;7700;48.654;9.070;2022-07-17T07:56:07;2.40;;;2.20;;
15198;SDS011;7700;48.654;9.070;2022-07-17T07:58:32;3.40;;;2.35;;
15198;SDS011;7700;48.654;9.070;2022-07-17T08:00:58;4.63;;;2.35;;
15198;SDS011;7700;48.654;9.070;2022-07-17T08:03:23;2.72;;;2.20;;
15198;SDS011;7700;48.654;9.070;2022-07-17T08:05:49;5.07;;;1.90;;
15198;SDS011;7700;48.654;9.070;2022-07-17T08:08:14;2.25;;;1.98;;
15198;SDS011;7700;48.654;9.070;2022-07-17T08:10:39;2.13;;;2.03;;
15198;SDS011;7700;48.654;9.070;2022-07-17T08:13:05;2.47;;;1.92;;
15198;SDS011;7700;48.654;9.070;2022-07-17T08:15:30;3.33;;;2.40;;
15198;SDS011;7700;48.654;9.070;2022-07-17T08:17:56;4.53;;;1.83;;
15198;SDS011;7700;48.654;9.070;2022-07-17T08:20:22;3.45;;;2.10;;
15198;SDS011;7700;48.654;9.070;2022-07-17T08:22:47;2.00;;;1.90;;
15198;SDS011;7700;48.654;9.070;2022-07-17T08:25:14;2.33;;;1.98;;
15198;SDS011;7700;48.654;9.070;2022-07-17T08:27:40;2.25;;;1.67;;
15198;SDS011;7700;48.654;9.070;2022-07-17T08:30:07;1.67;;;1.50;;
15198;SDS011;7700;48.654;9.070;2022-07-17T08:32:35;3.42;;;1.90;;
15198;SDS011;7700;48.654;9.070;2022-07-17T08:35:01;1.70;;;1.60;;
15198;SDS011;7700;48.654;9.070;2022-07-17T08:37:27;2.17;;;1.67;;
15198;SDS011;7700;48.654;9.070;2022-07-17T08:39:53;2.42;;;1.67;;
15198;SDS011;7700;48.654;9.070;2022-07-17T08:42:20;2.25;;;1.23;;
15198;SDS011;7700;48.654;9.070;2022-07-17T08:44:45;2.38;;;1.70;;
15198;SDS011;7700;48.654;9.070;2022-07-17T08:47:11;2.13;;;1.65;;
15198;SDS011;7700;48.654;9.070;2022-07-17T08:49:43;1.92;;;1.70;;
15198;SDS011;7700;48.654;9.070;2022-07-17T08:52:12;2.65;;;1.80;;
15198;SDS011;7700;48.654;9.070;2022-07-17T08:54:38;5.30;;;1.55;;
15198;SDS011;7700;48.654;9.070;2022-07-17T08:57:04;2.05;;;1.70;;
15198;SDS011;7700;48.654;9.070;2022-07-17T08:59:30;4.05;;;1.80;;
15198;SDS011;7700;48.654;9.070;2022-07-17T09:01:57;2.83;;;1.83;;
15198;SDS011;7700;48.654;9.070;2022-07-17T09:04:24;3.03;;;2.33;;
15198;SDS011;7700;48.654;9.070;2022-07-17T09:06:59;2.22;;;1.90;;
15198;SDS011;7700;48.654;9.070;2022-07-17T09:09:26;2.28;;;1.60;;
15198;SDS011;7700;48.654;9.070;2022-07-17T09:11:53;3.35;;;1.83;;
15198;SDS011;7700;48.654;9.070;2022-07-17T09:14:20;2.58;;;1.88;;
15198;SDS011;7700;48.654;9.070;2022-07-17T09:16:47;1.92;;;1.52;;
15198;SDS011;7700;48.654;9.070;2022-07-17T09:19:22;3.47;;;1.70;;
15198;SDS011;7700;48.654;9.070;2022-07-17T09:22:06;1.70;;;1.60;;
15198;SDS011;7700;48.654;9.070;2022-07-17T09:27:08;2.55;;;2.00;;
15198;SDS011;7700;48.654;9.070;2022-07-17T09:29:34;2.03;;;1.88;;
15198;SDS011;7700;48.654;9.070;2022-07-17T09:32:18;1.63;;;1.52;;
15198;SDS011;7700;48.654;9.070;2022-07-17T09:34:45;1.83;;;1.67;;
15198;SDS011;7700;48.654;9.070;2022-07-17T09:37:12;5.40;;;2.00;;
15198;SDS011;7700;48.654;9.070;2022-07-17T09:39:38;3.00;;;1.92;;
15198;SDS011;7700;48.654;9.070;2022-07-17T09:42:04;2.03;;;1.77;;
15198;SDS011;7700;48.654;9.070;2022-07-17T09:44:30;1.70;;;1.60;;
15198;SDS011;7700;48.654;9.070;2022-07-17T09:46:56;1.88;;;1.77;;
15198;SDS011;7700;48.654;9.070;2022-07-17T09:49:23;2.25;;;2.00;;
15198;SDS011;7700;48.654;9.070;2022-07-17T09:51:51;2.85;;;1.98;;
15198;SDS011;7700;48.654;9.070;2022-07-17T09:54:20;1.85;;;1.60;;
15198;SDS011;7700;48.654;9.070;2022-07-17T09:56:46;2.10;;;1.92;;
15198;SDS011;7700;48.654;9.070;2022-07-17T09:59:22;2.65;;;1.77;;
15198;SDS011;7700;48.654;9.070;2022-07-17T10:03:31;1.55;;;1.45;;
15198;SDS011;7700;48.654;9.070;2022-07-17T10:05:57;2.97;;;1.63;;
15198;SDS011;7700;48.654;9.070;2022-07-17T10:08:23;2.53;;;1.60;;
15198;SDS011;7700;48.654;9.070;2022-07-17T10:10:49;1.80;;;1.70;;
15198;SDS011;7700;48.654;9.070;2022-07-17T10:13:15;1.65;;;1.55;;
15198;SDS011;7700;48.654;9.070;2022-07-17T10:15:41;2.08;;;1.75;;
15198;SDS011;7700;48.654;9.070;2022-07-17T10:18:07;1.50;;;1.40;;
15198;SDS011;7700;48.654;9.070;2022-07-17T10:20:33;2.53;;;1.45;;
15198;SDS011;7700;48.654;9.070;2022-07-17T10:22:59;1.67;;;1.55;;
15198;SDS011;7700;48.654;9.070;2022-07-17T10:25:24;1.88;;;1.77;;
15198;SDS011;7700;48.654;9.070;2022-07-17T10:27:51;1.83;;;1.70;;
15198;SDS011;7700;48.654;9.070;2022-07-17T10:30:20;2.35;;;1.60;;
15198;SDS011;7700;48.654;9.070;2022-07-17T10:32:56;1.30;;;1.20;;
15198;SDS011;7700;48.654;9.070;2022-07-17T10:35:23;1.45;;;1.33;;
15198;SDS011;7700;48.654;9.070;2022-07-17T10:37:50;2.08;;;1.50;;
15198;SDS011;7700;48.654;9.070;2022-07-17T10:42:55;1.17;;;1.08;;
15198;SDS011;7700;48.654;9.070;2022-07-17T10:47:52;1.83;;;1.42;;
15198;SDS011;7700;48.654;9.070;2022-07-17T10:50:24;2.35;;;1.20;;
15198;SDS011;7700;48.654;9.070;2022-07-17T10:55:43;1.67;;;1.58;;
15198;SDS011;7700;48.654;9.070;2022-07-17T10:58:19;1.75;;;1.65;;
15198;SDS011;7700;48.654;9.070;2022-07-17T11:03:42;2.40;;;1.35;;
15198;SDS011;7700;48.654;9.070;2022-07-17T11:06:11;1.52;;;1.23;;
15198;SDS011;7700;48.654;9.070;2022-07-17T11:08:43;2.22;;;1.40;;
15198;SDS011;7700;48.654;9.070;2022-07-17T11:11:16;1.60;;;1.35;;
15198;SDS011;7700;48.654;9.070;2022-07-17T11:13:43;1.20;;;1.10;;
15198;SDS011;7700;48.654;9.070;2022-07-17T11:16:09;1.17;;;1.15;;
15198;SDS011;7700;48.654;9.070;2022-07-17T11:18:35;1.58;;;1.13;;
15198;SDS011;7700;48.654;9.070;2022-07-17T11:21:02;4.60;;;1.60;;
15198;SDS011;7700;48.654;9.070;2022-07-17T11:23:29;1.50;;;1.40;;
15198;SDS011;7700;48.654;9.070;2022-07-17T11:26:04;0.80;;;0.80;;
15198;SDS011;7700;48.654;9.070;2022-07-17T11:28:32;1.30;;;1.20;;
15198;SDS011;7700;48.654;9.070;2022-07-17T11:31:25;2.95;;;1.55;;
15198;SDS011;7700;48.654;9.070;2022-07-17T11:33:59;2.08;;;1.20;;
15198;SDS011;7700;48.654;9.070;2022-07-17T11:38:58;1.17;;;1.10;;
15198;SDS011;7700;48.654;9.070;2022-07-17T11:41:36;1.33;;;1.20;;
15198;SDS011;7700;48.654;9.070;2022-07-17T11:44:03;2.80;;;1.52;;
15198;SDS011;7700;48.654;9.070;2022-07-17T11:46:30;1.63;;;1.52;;
15198;SDS011;7700;48.654;9.070;2022-07-17T11:48:58;2.38;;;1.50;;
15198;SDS011;7700;48.654;9.070;2022-07-17T11:51:38;2.10;;;1.38;;
15198;SDS011;7700;48.654;9.070;2022-07-17T11:54:10;4.78;;;1.40;;
15198;SDS011;7700;48.654;9.070;2022-07-17T11:56:38;2.35;;;1.17;;
15198;SDS011;7700;48.654;9.070;2022-07-17T11:59:04;1.73;;;1.63;;
15198;SDS011;7700;48.654;9.070;2022-07-17T12:01:39;1.60;;;1.23;;
15198;SDS011;7700;48.654;9.070;2022-07-17T12:04:08;1.70;;;1.60;;
15198;SDS011;7700;48.654;9.070;2022-07-17T12:06:35;1.85;;;1.40;;
15198;SDS011;7700;48.654;9.070;2022-07-17T12:09:00;1.73;;;1.17;;
15198;SDS011;7700;48.654;9.070;2022-07-17T12:11:26;5.13;;;1.30;;
15198;SDS011;7700;48.654;9.070;2022-07-17T12:13:52;1.50;;;1.30;;
15198;SDS011;7700;48.654;9.070;2022-07-17T12:16:22;2.03;;;1.15;;
15198;SDS011;7700;48.654;9.070;2022-07-17T12:18:56;1.30;;;1.20;;
15198;SDS011;7700;48.654;9.070;2022-07-17T12:21:26;1.42;;;1.20;;
15198;SDS011;7700;48.654;9.070;2022-07-17T12:24:03;1.52;;;1.38;;
15198;SDS011;7700;48.654;9.070;2022-07-17T12:26:30;1.17;;;1.10;;
15198;SDS011;7700;48.654;9.070;2022-07-17T12:28:57;1.50;;;1.40;;
15198;SDS011;7700;48.654;9.070;2022-07-17T12:31:24;2.83;;;1.08;;
15198;SDS011;7700;48.654;9.070;2022-07-17T12:33:51;2.40;;;1.00;;
15198;SDS011;7700;48.654;9.070;2022-07-17T12:36:19;3.55;;;1.10;;
15198;SDS011;7700;48.654;9.070;2022-07-17T12:38:46;0.90;;;0.90;;
15198;SDS011;7700;48.654;9.070;2022-07-17T12:41:12;1.30;;;1.20;;
15198;SDS011;7700;48.654;9.070;2022-07-17T12:43:38;0.90;;;0.82;;
15198;SDS011;7700;48.654;9.070;2022-07-17T12:46:03;3.10;;;1.10;;
15198;SDS011;7700;48.654;9.070;2022-07-17T12:48:29;2.05;;;1.10;;
15198;SDS011;7700;48.654;9.070;2022-07-17T12:50:54;2.22;;;1.20;;
15198;SDS011;7700;48.654;9.070;2022-07-17T12:53:20;2.72;;;1.00;;
15198;SDS011;7700;48.654;9.070;2022-07-17T12:55:46;2.00;;;0.95;;
15198;SDS011;7700;48.654;9.070;2022-07-17T12:58:11;1.20;;;1.10;;
15198;SDS011;7700;48.654;9.070;2022-07-17T13:00:37;0.80;;;0.80;;
15198;SDS011;7700;48.654;9.070;2022-07-17T13:03:03;1.10;;;1.00;;
15198;SDS011;7700;48.654;9.070;2022-07-17T13:05:29;1.98;;;1.02;;
15198;SDS011;7700;48.654;9.070;2022-07-17T13:07:55;3.63;;;1.40;;
15198;SDS011;7700;48.654;9.070;2022-07-17T13:10:21;2.35;;;1.10;;
15198;SDS011;7700;48.654;9.070;2022-07-17T13:12:47;1.27;;;1.17;;
15198;SDS011;7700;48.654;9.070;2022-07-17T13:15:13;1.40;;;1.30;;
15198;SDS011;7700;48.654;9.070;2022-07-17T13:17:38;1.58;;;1.27;;
15198;SDS011;7700;48.654;9.070;2022-07-17T13:20:04;1.30;;;1.20;;
15198;SDS011;7700;48.654;9.070;2022-07-17T13:22:30;1.63;;;1.15;;
15198;SDS011;7700;48.654;9.070;2022-07-17T13:24:56;1.30;;;1.20;;
15198;SDS011;7700;48.654;9.070;2022-07-17T13:27:22;1.27;;;1.20;;
15198;SDS011;7700;48.654;9.070;2022-07-17T13:29:47;1.30;;;1.10;;
15198;SDS011;7700;48.654;9.070;2022-07-17T13:32:13;1.40;;;1.20;;
15198;SDS011;7700;48.654;9.070;2022-07-17T13:34:38;3.28;;;1.20;;
15198;SDS011;7700;48.654;9.070;2022-07-17T13:37:04;1.70;;;1.60;;
15198;SDS011;7700;48.654;9.070;2022-07-17T13:39:30;1.08;;;1.00;;
15198;SDS011;7700;48.654;9.070;2022-07-17T13:41:56;1.63;;;1.52;;
15198;SDS011;7700;48.654;9.070;2022-07-17T13:44:22;2.53;;;1.30;;
15198;SDS011;7700;48.654;9.070;2022-07-17T13:46:47;1.52;;;1.42;;
15198;SDS011;7700;48.654;9.070;2022-07-17T13:49:13;1.30;;;1.20;;
15198;SDS011;7700;48.654;9.070;2022-07-17T13:51:38;1.92;;;1.40;;
15198;SDS011;7700;48.654;9.070;2022-07-17T13:54:04;2.28;;;1.10;;
15198;SDS011;7700;48.654;9.070;2022-07-17T13:56:31;2.08;;;1.20;;
15198;SDS011;7700;48.654;9.070;2022-07-17T13:58:57;1.00;;;1.00;;
15198;SDS011;7700;48.654;9.070;2022-07-17T14:01:22;1.88;;;1.38;;
15198;SDS011;7700;48.654;9.070;2022-07-17T14:03:48;1.45;;;1.35;;
15198;SDS011;7700;48.654;9.070;2022-07-17T14:06:14;1.30;;;1.20;;
15198;SDS011;7700;48.654;9.070;2022-07-17T14:08:39;1.35;;;1.25;;
15198;SDS011;7700;48.654;9.070;2022-07-17T14:11:05;1.13;;;1.10;;
15198;SDS011;7700;48.654;9.070;2022-07-17T14:13:31;0.98;;;0.93;;
15198;SDS011;7700;48.654;9.070;2022-07-17T14:15:56;1.52;;;1.42;;
15198;SDS011;7700;48.654;9.070;2022-07-17T14:18:22;1.38;;;1.15;;
15198;SDS011;7700;48.654;9.070;2022-07-17T14:20:48;1.63;;;1.13;;
15198;SDS011;7700;48.654;9.070;2022-07-17T14:23:13;2.25;;;1.02;;
15198;SDS011;7700;48.654;9.070;2022-07-17T14:25:39;2.17;;;1.65;;
15198;SDS011;7700;48.654;9.070;2022-07-17T14:28:04;1.63;;;1.50;;
15198;SDS011;7700;48.654;9.070;2022-07-17T14:30:30;1.80;;;1.50;;
15198;SDS011;7700;48.654;9.070;2022-07-17T14:32:57;2.10;;;1.90;;
15198;SDS011;7700;48.654;9.070;2022-07-17T14:35:23;1.77;;;1.63;;
15198;SDS011;7700;48.654;9.070;2022-07-17T14:37:49;1.63;;;1.20;;
15198;SDS011;7700;48.654;9.070;2022-07-17T14:40:15;1.10;;;1.00;;
15198;SDS011;7700;48.654;9.070;2022-07-17T14:42:41;1.17;;;1.10;;
15198;SDS011;7700;48.654;9.070;2022-07-17T14:45:07;1.38;;;1.27;;
15198;SDS011;7700;48.654;9.070;2022-07-17T14:47:34;1.75;;;1.35;;
15198;SDS011;7700;48.654;9.070;2022-07-17T14:49:59;2.38;;;1.25;;
15198;SDS011;7700;48.654;9.070;2022-07-17T14:52:25;1.52;;;1.40;;
15198;SDS011;7700;48.654;9.070;2022-07-17T14:54:51;1.20;;;1.20;;
15198;SDS011;7700;48.654;9.070;2022-07-17T14:57:16;1.80;;;1.40;;
15198;SDS011;7700;48.654;9.070;2022-07-17T14:59:42;1.60;;;1.13;;
15198;SDS011;7700;48.654;9.070;2022-07-17T15:02:07;2.15;;;1.50;;
15198;SDS011;7700;48.654;9.070;2022-07-17T15:04:33;1.70;;;1.60;;
15198;SDS011;7700;48.654;9.070;2022-07-17T15:07:02;1.52;;;1.42;;
15198;SDS011;7700;48.654;9.070;2022-07-17T15:09:29;1.60;;;1.42;;
15198;SDS011;7700;48.654;9.070;2022-07-17T15:11:54;1.83;;;1.73;;
15198;SDS011;7700;48.654;9.070;2022-07-17T15:14:20;1.67;;;1.55;;